AAL1521 KMIA-KRDU
Flight info
| Callsign | AAL1521 |
|---|---|
| Flight time | N/A |
| Altitude | 38000 |
| Route | FOLZZ3 ALYRA GRUBR/N0453F370 Y299 SEELO GARIC BLOGS3 |
| Aircraft | A319/M-SDE3FGHIRWY/LB1 |
Departure
| Time | 2026-05-07 15:25 |
|---|---|
| Airport | Miami International Airport (KMIA) |
Arrival
| Time | N/A |
|---|---|
| Airport | Raleigh-Durham International Airport (KRDU) |
| Time | Latitude | Longitude | Altitude | Speed | Heading |
|---|---|---|---|---|---|
| 2026-05-07 15:00 | 25.79821 | -80.28415 | 15 ft | 0 kts | 177° |
| 2026-05-07 15:13 | 25.79845 | -80.28416 | 19 ft | 4 kts | 177° |
| 2026-05-07 15:13 | 25.79867 | -80.28418 | 16 ft | 4 kts | 191° |
| 2026-05-07 15:13 | 25.79883 | -80.28405 | 15 ft | 4 kts | 259° |
| 2026-05-07 15:13 | 25.79885 | -80.28378 | 15 ft | 2 kts | 267° |
| 2026-05-07 15:14 | 25.79885 | -80.28376 | 15 ft | 0 kts | 267° |
| 2026-05-07 15:19 | 25.79885 | -80.28385 | 15 ft | 4 kts | 267° |
| 2026-05-07 15:19 | 25.79903 | -80.28423 | 16 ft | 7 kts | 326° |
| 2026-05-07 15:19 | 25.79944 | -80.28471 | 15 ft | 10 kts | 285° |
| 2026-05-07 15:20 | 25.79992 | -80.28533 | 15 ft | 12 kts | 332° |
| 2026-05-07 15:20 | 25.80024 | -80.28621 | 16 ft | 14 kts | 267° |
| 2026-05-07 15:20 | 25.80020 | -80.28721 | 17 ft | 4 kts | 267° |
| 2026-05-07 15:20 | 25.80017 | -80.28782 | 17 ft | 11 kts | 267° |
| 2026-05-07 15:21 | 25.80013 | -80.28879 | 16 ft | 14 kts | 267° |
| 2026-05-07 15:21 | 25.80009 | -80.28993 | 16 ft | 16 kts | 267° |
| 2026-05-07 15:21 | 25.80004 | -80.29104 | 16 ft | 16 kts | 268° |
| 2026-05-07 15:21 | 25.79998 | -80.29234 | 16 ft | 18 kts | 268° |
| 2026-05-07 15:22 | 25.79994 | -80.29361 | 15 ft | 16 kts | 267° |
| 2026-05-07 15:22 | 25.79987 | -80.29499 | 14 ft | 19 kts | 267° |
| 2026-05-07 15:22 | 25.79981 | -80.29653 | 14 ft | 15 kts | 267° |
| 2026-05-07 15:22 | 25.79976 | -80.29775 | 14 ft | 16 kts | 268° |
| 2026-05-07 15:23 | 25.79972 | -80.29896 | 14 ft | 16 kts | 268° |
| 2026-05-07 15:23 | 25.79985 | -80.29995 | 14 ft | 13 kts | 288° |
| 2026-05-07 15:23 | 25.80013 | -80.30093 | 15 ft | 11 kts | 300° |
| 2026-05-07 15:23 | 25.80074 | -80.30077 | 14 ft | 7 kts | 73° |
| 2026-05-07 15:24 | 25.80074 | -80.30054 | 13 ft | 0 kts | 86° |
| 2026-05-07 15:24 | 25.80076 | -80.30012 | 13 ft | 29 kts | 86° |
| 2026-05-07 15:24 | 25.80107 | -80.29464 | 15 ft | 108 kts | 86° |
| 2026-05-07 15:24 | 25.80145 | -80.28412 | 16 ft | 165 kts | 88° |
| 2026-05-07 15:25 | 25.80195 | -80.27066 | 368 ft | 186 kts | 87° |
| 2026-05-07 15:25 | 25.80187 | -80.25611 | 949 ft | 193 kts | 103° |
| 2026-05-07 15:25 | 25.79669 | -80.24329 | 1798 ft | 180 kts | 124° |
| 2026-05-07 15:25 | 25.78955 | -80.23130 | 2547 ft | 185 kts | 123° |
| 2026-05-07 15:26 | 25.78322 | -80.21845 | 3019 ft | 204 kts | 117° |
| 2026-05-07 15:26 | 25.77671 | -80.20328 | 3447 ft | 229 kts | 115° |
| 2026-05-07 15:26 | 25.76962 | -80.18638 | 3977 ft | 255 kts | 115° |
| 2026-05-07 15:26 | 25.76161 | -80.16803 | 4724 ft | 268 kts | 117° |
| 2026-05-07 15:27 | 25.75295 | -80.14954 | 5647 ft | 274 kts | 118° |
| 2026-05-07 15:27 | 25.74612 | -80.12950 | 6547 ft | 280 kts | 100° |
| 2026-05-07 15:27 | 25.74613 | -80.10788 | 7450 ft | 283 kts | 78° |
| 2026-05-07 15:27 | 25.75336 | -80.08774 | 8374 ft | 286 kts | 57° |
| 2026-05-07 15:28 | 25.76609 | -80.07055 | 9317 ft | 289 kts | 49° |
| 2026-05-07 15:28 | 25.77951 | -80.05368 | 10239 ft | 292 kts | 49° |
| 2026-05-07 15:28 | 25.79306 | -80.03656 | 10956 ft | 302 kts | 49° |
| 2026-05-07 15:28 | 25.80746 | -80.01831 | 11252 ft | 326 kts | 49° |
| 2026-05-07 15:29 | 25.82278 | -79.99886 | 11716 ft | 342 kts | 49° |
| 2026-05-07 15:29 | 25.83557 | -79.98261 | 12271 ft | 347 kts | 49° |
| 2026-05-07 15:29 | 25.85145 | -79.96241 | 13049 ft | 352 kts | 49° |
| 2026-05-07 15:29 | 25.86770 | -79.94175 | 13820 ft | 357 kts | 49° |
| 2026-05-07 15:30 | 25.88426 | -79.92071 | 14506 ft | 362 kts | 48° |
| 2026-05-07 15:30 | 25.90084 | -79.89964 | 15189 ft | 366 kts | 48° |
| 2026-05-07 15:30 | 25.91774 | -79.87813 | 15855 ft | 371 kts | 47° |
| 2026-05-07 15:30 | 25.93479 | -79.85638 | 16529 ft | 375 kts | 47° |
| 2026-05-07 15:31 | 25.95204 | -79.83440 | 17222 ft | 379 kts | 47° |
| 2026-05-07 15:31 | 25.96945 | -79.81224 | 17913 ft | 383 kts | 46° |
| 2026-05-07 15:31 | 25.98709 | -79.78978 | 18571 ft | 387 kts | 46° |
| 2026-05-07 15:31 | 26.00488 | -79.76712 | 19144 ft | 392 kts | 46° |
| 2026-05-07 15:32 | 26.02293 | -79.74413 | 19730 ft | 396 kts | 46° |
| 2026-05-07 15:32 | 26.04109 | -79.72094 | 20294 ft | 400 kts | 46° |
| 2026-05-07 15:32 | 26.05943 | -79.69748 | 20885 ft | 405 kts | 46° |
| 2026-05-07 15:32 | 26.07808 | -79.67359 | 21459 ft | 409 kts | 46° |
| 2026-05-07 15:33 | 26.09680 | -79.64961 | 22025 ft | 414 kts | 45° |
| 2026-05-07 15:33 | 26.11467 | -79.62430 | 22575 ft | 421 kts | 51° |
| 2026-05-07 15:33 | 26.13165 | -79.59754 | 23125 ft | 425 kts | 51° |
| 2026-05-07 15:33 | 26.14859 | -79.57081 | 23653 ft | 429 kts | 51° |
| 2026-05-07 15:34 | 26.16587 | -79.54355 | 24096 ft | 433 kts | 51° |
| 2026-05-07 15:34 | 26.18332 | -79.51603 | 24569 ft | 437 kts | 51° |
| 2026-05-07 15:34 | 26.20110 | -79.48797 | 24990 ft | 441 kts | 51° |
| 2026-05-07 15:34 | 26.21867 | -79.46018 | 25441 ft | 444 kts | 51° |
| 2026-05-07 15:35 | 26.23651 | -79.43198 | 25879 ft | 447 kts | 51° |
| 2026-05-07 15:35 | 26.24855 | -79.41296 | 26185 ft | 449 kts | 51° |
| 2026-05-07 15:35 | 26.27274 | -79.37520 | 26790 ft | 451 kts | 47° |
| 2026-05-07 15:35 | 26.29388 | -79.34958 | 27223 ft | 449 kts | 38° |
| 2026-05-07 15:36 | 26.31847 | -79.32815 | 27669 ft | 447 kts | 28° |
| 2026-05-07 15:36 | 26.34471 | -79.30955 | 28108 ft | 449 kts | 28° |
| 2026-05-07 15:36 | 26.36225 | -79.29714 | 28399 ft | 451 kts | 28° |
| 2026-05-07 15:36 | 26.38911 | -79.27809 | 28843 ft | 454 kts | 28° |
| 2026-05-07 15:37 | 26.41579 | -79.25910 | 29256 ft | 457 kts | 28° |
| 2026-05-07 15:37 | 26.44227 | -79.24020 | 29665 ft | 460 kts | 28° |
| 2026-05-07 15:37 | 26.46959 | -79.22065 | 30074 ft | 464 kts | 28° |
| 2026-05-07 15:37 | 26.49656 | -79.20135 | 30389 ft | 467 kts | 28° |
| 2026-05-07 15:38 | 26.52432 | -79.18150 | 30731 ft | 470 kts | 28° |
| 2026-05-07 15:38 | 26.55196 | -79.16175 | 31060 ft | 473 kts | 28° |
| 2026-05-07 15:38 | 26.57948 | -79.14206 | 31395 ft | 475 kts | 28° |
| 2026-05-07 15:38 | 26.60722 | -79.12218 | 31822 ft | 475 kts | 28° |
| 2026-05-07 15:39 | 26.62724 | -79.10782 | 32182 ft | 473 kts | 28° |
| 2026-05-07 15:39 | 26.63270 | -79.10390 | 32285 ft | 473 kts | 28° |
| 2026-05-07 15:40 | 26.66035 | -79.08404 | 32775 ft | 472 kts | 28° |
| 2026-05-07 15:40 | 26.68787 | -79.06429 | 33259 ft | 471 kts | 28° |
| 2026-05-07 15:40 | 26.71551 | -79.04448 | 33764 ft | 469 kts | 28° |
| 2026-05-07 15:40 | 26.74299 | -79.02481 | 34256 ft | 468 kts | 28° |
| 2026-05-07 15:41 | 26.76258 | -79.01077 | 34566 ft | 467 kts | 28° |
| 2026-05-07 15:41 | 26.79098 | -78.99039 | 35007 ft | 466 kts | 28° |
| 2026-05-07 15:42 | 26.81816 | -78.97087 | 35457 ft | 465 kts | 28° |
| 2026-05-07 15:42 | 26.84546 | -78.95128 | 35902 ft | 463 kts | 28° |
| 2026-05-07 15:42 | 26.87252 | -78.93186 | 36339 ft | 462 kts | 28° |
| 2026-05-07 15:42 | 26.89950 | -78.91246 | 36762 ft | 460 kts | 28° |
| 2026-05-07 15:43 | 26.92639 | -78.89306 | 37176 ft | 459 kts | 28° |
| 2026-05-07 15:43 | 26.95328 | -78.87364 | 37568 ft | 458 kts | 28° |
| 2026-05-07 15:43 | 26.98005 | -78.85431 | 37953 ft | 457 kts | 28° |
| 2026-05-07 15:43 | 27.00678 | -78.83498 | 38087 ft | 457 kts | 28° |
| 2026-05-07 15:44 | 27.06011 | -78.79645 | 38102 ft | 456 kts | 27° |
| 2026-05-07 15:44 | 27.11347 | -78.75789 | 38106 ft | 456 kts | 27° |
| 2026-05-07 15:45 | 27.16679 | -78.71930 | 38106 ft | 456 kts | 27° |
| 2026-05-07 15:45 | 27.22004 | -78.68079 | 38107 ft | 456 kts | 28° |